Terminal Aerodrome Forecast
Issued by NWS

Home | Current Version | Previous Version | Text Only | Print | Product List | Glossary On
Versions: 1 2 3 4 5 6 7 8 9 10 11 12 13 14 15 16 17
000
FTUS43 KEAX 250600 AAB
TAFSTJ
TAF AMD
KSTJ 250648Z 2507/2606 VRB03KT 2SM BR SCT002
      TEMPO 2508/2512 1/2SM FG VV002
     FM251400 25009KT P6SM SKC
     FM251700 22012G20KT P6SM FEW250
     FM252100 18009KT P6SM FEW250=

USA.gov is the U.S. government's official web portal to all federal, state and local government web resources and services.